sensor_id;sensor_type;location;lat;lon;timestamp;pressure;altitude;pressure_sealevel;temperature;humidity
64698;BME280;51124;53.394;-6.294;2022-07-21T00:00:21;101730.44;;;25.37;10.91
64698;BME280;51124;53.394;-6.294;2022-07-21T00:02:45;101730.89;;;25.01;10.85
64698;BME280;51124;53.394;-6.294;2022-07-21T00:05:20;101731.34;;;25.59;10.74
64698;BME280;51124;53.394;-6.294;2022-07-21T00:07:45;101736.73;;;25.24;10.87
64698;BME280;51124;53.394;-6.294;2022-07-21T00:10:20;101735.63;;;24.96;10.91
64698;BME280;51124;53.394;-6.294;2022-07-21T00:12:45;101735.39;;;24.49;10.98
64698;BME280;51124;53.394;-6.294;2022-07-21T00:15:21;101736.38;;;25.23;10.92
64698;BME280;51124;53.394;-6.294;2022-07-21T00:17:45;101736.05;;;23.97;11.01
64698;BME280;51124;53.394;-6.294;2022-07-21T00:20:20;101740.16;;;24.86;10.83
64698;BME280;51124;53.394;-6.294;2022-07-21T00:22:54;101742.17;;;24.13;11.11
64698;BME280;51124;53.394;-6.294;2022-07-21T00:25:29;101743.06;;;24.77;10.99
64698;BME280;51124;53.394;-6.294;2022-07-21T00:28:04;101744.49;;;23.61;11.27
64698;BME280;51124;53.394;-6.294;2022-07-21T00:30:28;101748.15;;;24.55;10.84
64698;BME280;51124;53.394;-6.294;2022-07-21T00:33:02;101745.27;;;24.75;10.93
64698;BME280;51124;53.394;-6.294;2022-07-21T00:35:37;101742.84;;;24.35;11.02
64698;BME280;51124;53.394;-6.294;2022-07-21T00:38:11;101744.02;;;24.66;11.01
64698;BME280;51124;53.394;-6.294;2022-07-21T00:40:45;101744.85;;;24.90;10.96
64698;BME280;51124;53.394;-6.294;2022-07-21T00:43:19;101744.31;;;25.04;10.90
64698;BME280;51124;53.394;-6.294;2022-07-21T00:45:54;101745.80;;;24.41;11.17
64698;BME280;51124;53.394;-6.294;2022-07-21T00:48:28;101746.90;;;24.70;11.02
64698;BME280;51124;53.394;-6.294;2022-07-21T00:51:03;101744.56;;;24.82;10.91
64698;BME280;51124;53.394;-6.294;2022-07-21T00:53:37;101745.72;;;25.23;10.99
64698;BME280;51124;53.394;-6.294;2022-07-21T00:56:11;101744.07;;;24.05;11.19
64698;BME280;51124;53.394;-6.294;2022-07-21T00:58:45;101747.73;;;23.91;11.26
64698;BME280;51124;53.394;-6.294;2022-07-21T01:01:19;101749.33;;;24.88;11.15
64698;BME280;51124;53.394;-6.294;2022-07-21T01:03:53;101750.65;;;24.30;11.22
64698;BME280;51124;53.394;-6.294;2022-07-21T01:06:28;101751.53;;;24.27;11.22
64698;BME280;51124;53.394;-6.294;2022-07-21T01:09:02;101749.86;;;24.44;10.98
64698;BME280;51124;53.394;-6.294;2022-07-21T01:11:37;101747.12;;;24.73;11.26
64698;BME280;51124;53.394;-6.294;2022-07-21T01:14:11;101740.12;;;24.86;10.88
64698;BME280;51124;53.394;-6.294;2022-07-21T01:16:46;101742.51;;;24.96;10.98
64698;BME280;51124;53.394;-6.294;2022-07-21T01:19:20;101744.72;;;24.43;11.23
64698;BME280;51124;53.394;-6.294;2022-07-21T01:21:54;101746.80;;;23.82;11.38
64698;BME280;51124;53.394;-6.294;2022-07-21T01:24:28;101744.88;;;24.63;11.06
64698;BME280;51124;53.394;-6.294;2022-07-21T01:27:02;101744.22;;;24.43;11.05
64698;BME280;51124;53.394;-6.294;2022-07-21T01:29:36;101746.03;;;24.84;11.21
64698;BME280;51124;53.394;-6.294;2022-07-21T01:32:10;101748.82;;;24.08;11.18
64698;BME280;51124;53.394;-6.294;2022-07-21T01:34:44;101750.10;;;24.35;11.05
64698;BME280;51124;53.394;-6.294;2022-07-21T01:37:20;101750.54;;;24.25;11.16
64698;BME280;51124;53.394;-6.294;2022-07-21T01:39:46;101746.55;;;24.10;11.09
64698;BME280;51124;53.394;-6.294;2022-07-21T01:42:10;101746.01;;;24.89;10.86
64698;BME280;51124;53.394;-6.294;2022-07-21T01:44:44;101743.20;;;24.02;11.10
64698;BME280;51124;53.394;-6.294;2022-07-21T01:47:18;101744.28;;;23.61;11.45
64698;BME280;51124;53.394;-6.294;2022-07-21T01:49:52;101746.32;;;23.86;11.45
64698;BME280;51124;53.394;-6.294;2022-07-21T01:52:27;101749.66;;;24.00;11.29
64698;BME280;51124;53.394;-6.294;2022-07-21T01:55:01;101748.92;;;24.23;11.20
64698;BME280;51124;53.394;-6.294;2022-07-21T01:57:34;101749.84;;;24.14;11.15
64698;BME280;51124;53.394;-6.294;2022-07-21T02:00:09;101746.44;;;24.06;11.16
64698;BME280;51124;53.394;-6.294;2022-07-21T02:02:43;101747.00;;;24.21;11.21
64698;BME280;51124;53.394;-6.294;2022-07-21T02:05:18;101743.32;;;23.97;11.17
64698;BME280;51124;53.394;-6.294;2022-07-21T02:07:52;101738.75;;;23.55;11.31
64698;BME280;51124;53.394;-6.294;2022-07-21T02:10:26;101734.77;;;23.77;11.30
64698;BME280;51124;53.394;-6.294;2022-07-21T02:13:00;101730.41;;;24.12;11.17
64698;BME280;51124;53.394;-6.294;2022-07-21T02:15:34;101736.20;;;23.70;11.31
64698;BME280;51124;53.394;-6.294;2022-07-21T02:18:08;101736.08;;;24.33;11.31
64698;BME280;51124;53.394;-6.294;2022-07-21T02:20:42;101739.74;;;23.18;11.35
64698;BME280;51124;53.394;-6.294;2022-07-21T02:23:17;101738.67;;;23.99;11.30
64698;BME280;51124;53.394;-6.294;2022-07-21T02:25:52;101740.23;;;23.83;11.33
64698;BME280;51124;53.394;-6.294;2022-07-21T02:28:26;101742.48;;;24.46;11.10
64698;BME280;51124;53.394;-6.294;2022-07-21T02:31:00;101746.35;;;23.32;11.43
64698;BME280;51124;53.394;-6.294;2022-07-21T02:33:34;101747.87;;;24.53;11.09
64698;BME280;51124;53.394;-6.294;2022-07-21T02:36:09;101748.02;;;23.85;11.40
64698;BME280;51124;53.394;-6.294;2022-07-21T02:38:43;101751.72;;;23.08;11.55
64698;BME280;51124;53.394;-6.294;2022-07-21T02:41:17;101751.75;;;23.77;11.42
64698;BME280;51124;53.394;-6.294;2022-07-21T02:43:51;101752.78;;;24.44;11.30
64698;BME280;51124;53.394;-6.294;2022-07-21T02:46:25;101755.39;;;24.28;11.28
64698;BME280;51124;53.394;-6.294;2022-07-21T02:48:59;101756.81;;;23.98;11.38
64698;BME280;51124;53.394;-6.294;2022-07-21T02:51:33;101762.75;;;24.29;11.20
64698;BME280;51124;53.394;-6.294;2022-07-21T02:54:07;101763.55;;;23.72;11.34
64698;BME280;51124;53.394;-6.294;2022-07-21T02:56:41;101774.32;;;24.38;11.16
64698;BME280;51124;53.394;-6.294;2022-07-21T02:59:15;101769.88;;;24.13;11.42
64698;BME280;51124;53.394;-6.294;2022-07-21T03:01:49;101777.08;;;24.12;11.47
64698;BME280;51124;53.394;-6.294;2022-07-21T03:04:23;101774.79;;;23.68;11.35
64698;BME280;51124;53.394;-6.294;2022-07-21T03:06:57;101773.63;;;23.83;11.49
64698;BME280;51124;53.394;-6.294;2022-07-21T03:09:31;101772.10;;;24.26;11.12
64698;BME280;51124;53.394;-6.294;2022-07-21T03:12:06;101771.74;;;23.03;11.34
64698;BME280;51124;53.394;-6.294;2022-07-21T03:14:40;101776.70;;;23.48;11.36
64698;BME280;51124;53.394;-6.294;2022-07-21T03:17:14;101779.05;;;23.46;11.36
64698;BME280;51124;53.394;-6.294;2022-07-21T03:19:48;101776.64;;;23.71;11.32
64698;BME280;51124;53.394;-6.294;2022-07-21T03:22:21;101774.70;;;23.42;11.43
64698;BME280;51124;53.394;-6.294;2022-07-21T03:24:55;101773.37;;;23.85;11.30
64698;BME280;51124;53.394;-6.294;2022-07-21T03:27:29;101773.44;;;23.00;11.67
64698;BME280;51124;53.394;-6.294;2022-07-21T03:30:06;101774.06;;;23.47;11.41
64698;BME280;51124;53.394;-6.294;2022-07-21T03:32:30;101775.23;;;24.38;11.27
64698;BME280;51124;53.394;-6.294;2022-07-21T03:35:05;101771.99;;;23.55;11.45
64698;BME280;51124;53.394;-6.294;2022-07-21T03:37:30;101769.85;;;24.02;11.37
64698;BME280;51124;53.394;-6.294;2022-07-21T03:40:05;101764.33;;;23.26;11.51
64698;BME280;51124;53.394;-6.294;2022-07-21T03:42:29;101763.97;;;23.54;11.51
64698;BME280;51124;53.394;-6.294;2022-07-21T03:45:03;101765.20;;;23.50;11.67
64698;BME280;51124;53.394;-6.294;2022-07-21T03:47:38;101765.98;;;23.02;11.63
64698;BME280;51124;53.394;-6.294;2022-07-21T03:50:12;101764.92;;;23.37;11.41
64698;BME280;51124;53.394;-6.294;2022-07-21T03:52:46;101767.17;;;23.61;11.48
64698;BME280;51124;53.394;-6.294;2022-07-21T03:55:21;101768.83;;;23.54;11.51
64698;BME280;51124;53.394;-6.294;2022-07-21T03:57:57;101767.20;;;22.77;11.55
64698;BME280;51124;53.394;-6.294;2022-07-21T04:00:22;101769.18;;;23.73;11.33
64698;BME280;51124;53.394;-6.294;2022-07-21T04:02:47;101771.71;;;23.67;11.43
64698;BME280;51124;53.394;-6.294;2022-07-21T04:05:22;101774.79;;;23.86;11.35
64698;BME280;51124;53.394;-6.294;2022-07-21T04:07:56;101772.22;;;23.16;11.48
64698;BME280;51124;53.394;-6.294;2022-07-21T04:10:33;101773.66;;;23.77;11.30
64698;BME280;51124;53.394;-6.294;2022-07-21T04:12:59;101775.16;;;22.75;11.75
64698;BME280;51124;53.394;-6.294;2022-07-21T04:15:23;101775.32;;;22.77;11.67
64698;BME280;51124;53.394;-6.294;2022-07-21T04:17:58;101780.78;;;23.02;11.82
64698;BME280;51124;53.394;-6.294;2022-07-21T04:20:32;101778.68;;;22.65;11.72
64698;BME280;51124;53.394;-6.294;2022-07-21T04:23:06;101778.34;;;23.50;11.56
64698;BME280;51124;53.394;-6.294;2022-07-21T04:25:40;101776.77;;;22.70;11.62
64698;BME280;51124;53.394;-6.294;2022-07-21T04:28:14;101779.23;;;22.76;11.78
64698;BME280;51124;53.394;-6.294;2022-07-21T04:30:48;101774.79;;;22.87;11.78
64698;BME280;51124;53.394;-6.294;2022-07-21T04:33:22;101775.21;;;22.87;11.59
64698;BME280;51124;53.394;-6.294;2022-07-21T04:35:56;101778.31;;;23.01;11.71
64698;BME280;51124;53.394;-6.294;2022-07-21T04:38:30;101778.10;;;23.05;11.73
64698;BME280;51124;53.394;-6.294;2022-07-21T04:41:04;101782.80;;;22.75;11.89
64698;BME280;51124;53.394;-6.294;2022-07-21T04:43:39;101781.59;;;23.15;11.62
64698;BME280;51124;53.394;-6.294;2022-07-21T04:46:12;101778.28;;;23.70;11.37
64698;BME280;51124;53.394;-6.294;2022-07-21T04:48:46;101781.24;;;22.68;11.67
64698;BME280;51124;53.394;-6.294;2022-07-21T04:51:21;101780.74;;;22.56;11.73
64698;BME280;51124;53.394;-6.294;2022-07-21T04:53:55;101780.73;;;22.97;11.79
64698;BME280;51124;53.394;-6.294;2022-07-21T04:56:29;101779.38;;;22.44;11.95
64698;BME280;51124;53.394;-6.294;2022-07-21T04:59:03;101779.27;;;23.13;11.61
64698;BME280;51124;53.394;-6.294;2022-07-21T05:01:38;101781.13;;;22.92;11.84
64698;BME280;51124;53.394;-6.294;2022-07-21T05:04:02;101781.24;;;22.27;11.82
64698;BME280;51124;53.394;-6.294;2022-07-21T05:06:36;101781.56;;;22.52;11.71
64698;BME280;51124;53.394;-6.294;2022-07-21T05:09:10;101779.05;;;22.11;12.07
64698;BME280;51124;53.394;-6.294;2022-07-21T05:11:44;101776.60;;;22.68;11.88
64698;BME280;51124;53.394;-6.294;2022-07-21T05:14:19;101779.98;;;22.48;11.87
64698;BME280;51124;53.394;-6.294;2022-07-21T05:16:52;101779.40;;;22.23;11.84
64698;BME280;51124;53.394;-6.294;2022-07-21T05:19:26;101781.48;;;22.77;11.81
64698;BME280;51124;53.394;-6.294;2022-07-21T05:22:01;101782.87;;;22.57;11.89
64698;BME280;51124;53.394;-6.294;2022-07-21T05:24:35;101781.65;;;22.30;11.89
64698;BME280;51124;53.394;-6.294;2022-07-21T05:27:09;101782.78;;;22.51;11.86
64698;BME280;51124;53.394;-6.294;2022-07-21T05:29:43;101777.54;;;22.20;12.02
64698;BME280;51124;53.394;-6.294;2022-07-21T05:32:17;101775.60;;;21.82;11.90
64698;BME280;51124;53.394;-6.294;2022-07-21T05:34:51;101774.26;;;22.80;11.79
64698;BME280;51124;53.394;-6.294;2022-07-21T05:37:25;101773.56;;;22.21;11.95
64698;BME280;51124;53.394;-6.294;2022-07-21T05:39:59;101774.22;;;22.31;11.97
64698;BME280;51124;53.394;-6.294;2022-07-21T05:42:34;101777.62;;;23.02;11.80
64698;BME280;51124;53.394;-6.294;2022-07-21T05:45:09;101782.46;;;22.81;11.82
64698;BME280;51124;53.394;-6.294;2022-07-21T05:47:43;101786.60;;;22.58;11.70
64698;BME280;51124;53.394;-6.294;2022-07-21T05:50:17;101787.24;;;23.20;11.63
64698;BME280;51124;53.394;-6.294;2022-07-21T05:52:51;101785.51;;;23.41;11.60
64698;BME280;51124;53.394;-6.294;2022-07-21T05:55:25;101783.53;;;23.12;11.58
64698;BME280;51124;53.394;-6.294;2022-07-21T05:57:59;101787.67;;;22.56;11.76
64698;BME280;51124;53.394;-6.294;2022-07-21T06:00:33;101788.09;;;23.74;11.46
64698;BME280;51124;53.394;-6.294;2022-07-21T06:03:07;101793.40;;;23.02;11.58
64698;BME280;51124;53.394;-6.294;2022-07-21T06:05:41;101795.50;;;22.96;11.60
64698;BME280;51124;53.394;-6.294;2022-07-21T06:08:15;101794.99;;;23.33;11.57
64698;BME280;51124;53.394;-6.294;2022-07-21T06:10:49;101798.42;;;23.04;11.74
64698;BME280;51124;53.394;-6.294;2022-07-21T06:13:23;101796.88;;;23.07;11.62
64698;BME280;51124;53.394;-6.294;2022-07-21T06:15:58;101796.94;;;23.48;11.46
64698;BME280;51124;53.394;-6.294;2022-07-21T06:18:32;101796.32;;;22.80;11.68
64698;BME280;51124;53.394;-6.294;2022-07-21T06:21:06;101795.86;;;23.04;11.72
64698;BME280;51124;53.394;-6.294;2022-07-21T06:23:40;101799.68;;;23.37;11.54
64698;BME280;51124;53.394;-6.294;2022-07-21T06:26:14;101799.81;;;23.18;11.52
64698;BME280;51124;53.394;-6.294;2022-07-21T06:28:48;101807.92;;;23.19;11.76
64698;BME280;51124;53.394;-6.294;2022-07-21T06:31:22;101807.80;;;22.78;11.67
64698;BME280;51124;53.394;-6.294;2022-07-21T06:33:56;101812.56;;;22.86;11.70
64698;BME280;51124;53.394;-6.294;2022-07-21T06:36:30;101814.07;;;22.91;11.70
64698;BME280;51124;53.394;-6.294;2022-07-21T06:39:04;101819.18;;;22.99;11.82
64698;BME280;51124;53.394;-6.294;2022-07-21T06:41:39;101820.30;;;23.70;11.51
64698;BME280;51124;53.394;-6.294;2022-07-21T06:44:13;101820.62;;;23.98;11.42
64698;BME280;51124;53.394;-6.294;2022-07-21T06:46:47;101823.47;;;24.34;11.20
64698;BME280;51124;53.394;-6.294;2022-07-21T06:49:21;101824.14;;;24.22;11.24
64698;BME280;51124;53.394;-6.294;2022-07-21T06:51:55;101827.98;;;23.97;11.33
64698;BME280;51124;53.394;-6.294;2022-07-21T06:54:29;101830.46;;;23.69;11.48
64698;BME280;51124;53.394;-6.294;2022-07-21T06:57:03;101830.95;;;24.71;10.98
64698;BME280;51124;53.394;-6.294;2022-07-21T06:59:37;101832.78;;;25.75;10.07
64698;BME280;51124;53.394;-6.294;2022-07-21T07:02:12;101834.35;;;25.74;9.85
64698;BME280;51124;53.394;-6.294;2022-07-21T07:04:46;101837.04;;;25.20;10.69
64698;BME280;51124;53.394;-6.294;2022-07-21T07:07:20;101838.93;;;23.35;11.59
64698;BME280;51124;53.394;-6.294;2022-07-21T07:09:54;101837.78;;;22.36;12.12
64698;BME280;51124;53.394;-6.294;2022-07-21T07:12:28;101841.93;;;22.15;12.44
64698;BME280;51124;53.394;-6.294;2022-07-21T07:15:03;101841.05;;;21.29;12.44
64698;BME280;51124;53.394;-6.294;2022-07-21T07:17:37;101838.82;;;21.91;12.34
64698;BME280;51124;53.394;-6.294;2022-07-21T07:20:11;101837.82;;;22.66;12.32
64698;BME280;51124;53.394;-6.294;2022-07-21T07:22:45;101838.66;;;21.65;12.57
64698;BME280;51124;53.394;-6.294;2022-07-21T07:25:20;101835.10;;;22.41;12.33
64698;BME280;51124;53.394;-6.294;2022-07-21T07:27:54;101838.29;;;22.13;12.35
64698;BME280;51124;53.394;-6.294;2022-07-21T07:30:28;101837.70;;;22.93;12.23
64698;BME280;51124;53.394;-6.294;2022-07-21T07:33:02;101837.42;;;21.81;12.42
64698;BME280;51124;53.394;-6.294;2022-07-21T07:35:36;101838.63;;;22.78;12.18
64698;BME280;51124;53.394;-6.294;2022-07-21T07:38:12;101842.94;;;22.28;12.40
64698;BME280;51124;53.394;-6.294;2022-07-21T07:40:36;101842.64;;;23.06;12.22
64698;BME280;51124;53.394;-6.294;2022-07-21T07:43:10;101842.50;;;23.06;11.97
64698;BME280;51124;53.394;-6.294;2022-07-21T07:45:44;101842.51;;;22.75;12.00
64698;BME280;51124;53.394;-6.294;2022-07-21T07:48:18;101843.87;;;22.60;12.09
64698;BME280;51124;53.394;-6.294;2022-07-21T07:50:52;101841.51;;;23.25;11.79
64698;BME280;51124;53.394;-6.294;2022-07-21T07:53:27;101844.36;;;24.16;11.62
64698;BME280;51124;53.394;-6.294;2022-07-21T07:56:01;101852.20;;;25.05;11.12
64698;BME280;51124;53.394;-6.294;2022-07-21T07:58:36;101854.08;;;26.39;9.81
64698;BME280;51124;53.394;-6.294;2022-07-21T08:01:10;101854.07;;;26.39;9.37
64698;BME280;51124;53.394;-6.294;2022-07-21T08:03:44;101854.40;;;25.43;9.38
64698;BME280;51124;53.394;-6.294;2022-07-21T08:06:18;101858.79;;;25.29;10.19
64698;BME280;51124;53.394;-6.294;2022-07-21T08:08:52;101860.46;;;26.29;9.98
64698;BME280;51124;53.394;-6.294;2022-07-21T08:11:26;101859.87;;;25.49;10.23
64698;BME280;51124;53.394;-6.294;2022-07-21T08:14:01;101859.56;;;26.50;10.02
64698;BME280;51124;53.394;-6.294;2022-07-21T08:16:35;101863.66;;;25.33;10.31
64698;BME280;51124;53.394;-6.294;2022-07-21T08:19:09;101865.94;;;25.65;10.23
64698;BME280;51124;53.394;-6.294;2022-07-21T08:21:43;101867.71;;;25.91;10.18
64698;BME280;51124;53.394;-6.294;2022-07-21T08:24:17;101861.31;;;27.12;9.87
64698;BME280;51124;53.394;-6.294;2022-07-21T08:26:52;101858.17;;;26.62;9.98
64698;BME280;51124;53.394;-6.294;2022-07-21T08:29:26;101861.49;;;26.11;10.28
64698;BME280;51124;53.394;-6.294;2022-07-21T08:32:00;101859.47;;;27.30;9.98
64698;BME280;51124;53.394;-6.294;2022-07-21T08:34:34;101857.52;;;27.53;9.96
64698;BME280;51124;53.394;-6.294;2022-07-21T08:37:08;101858.87;;;26.54;10.09
64698;BME280;51124;53.394;-6.294;2022-07-21T08:39:42;101858.05;;;27.50;9.85
64698;BME280;51124;53.394;-6.294;2022-07-21T08:42:16;101859.76;;;27.18;9.91
64698;BME280;51124;53.394;-6.294;2022-07-21T08:44:50;101855.37;;;27.02;9.96
64698;BME280;51124;53.394;-6.294;2022-07-21T08:47:25;101855.31;;;26.63;10.04
64698;BME280;51124;53.394;-6.294;2022-07-21T08:50:00;101855.48;;;27.72;9.78
64698;BME280;51124;53.394;-6.294;2022-07-21T08:52:26;101857.69;;;26.81;10.03
64698;BME280;51124;53.394;-6.294;2022-07-21T08:54:50;101860.46;;;26.95;10.07
64698;BME280;51124;53.394;-6.294;2022-07-21T08:57:24;101861.61;;;27.41;9.61
64698;BME280;51124;53.394;-6.294;2022-07-21T08:59:58;101865.42;;;27.22;10.06
64698;BME280;51124;53.394;-6.294;2022-07-21T09:02:34;101860.34;;;27.91;9.67
64698;BME280;51124;53.394;-6.294;2022-07-21T09:04:58;101864.38;;;27.85;9.93
64698;BME280;51124;53.394;-6.294;2022-07-21T09:07:47;101865.40;;;27.27;10.03
64698;BME280;51124;53.394;-6.294;2022-07-21T09:10:03;101859.26;;;27.82;9.86
64698;BME280;51124;53.394;-6.294;2022-07-21T09:12:28;101866.43;;;26.53;10.18
64698;BME280;51124;53.394;-6.294;2022-07-21T09:14:54;101864.25;;;26.40;10.12
64698;BME280;51124;53.394;-6.294;2022-07-21T09:17:25;101863.83;;;26.82;10.20
64698;BME280;51124;53.394;-6.294;2022-07-21T09:19:59;101863.39;;;27.26;10.22
64698;BME280;51124;53.394;-6.294;2022-07-21T09:22:33;101868.77;;;25.58;9.33
64698;BME280;51124;53.394;-6.294;2022-07-21T09:25:08;101866.42;;;26.21;7.98
64698;BME280;51124;53.394;-6.294;2022-07-21T09:27:42;101868.66;;;26.21;8.01
64698;BME280;51124;53.394;-6.294;2022-07-21T09:30:16;101868.09;;;26.13;8.11
64698;BME280;51124;53.394;-6.294;2022-07-21T09:32:50;101872.92;;;26.41;8.06
64698;BME280;51124;53.394;-6.294;2022-07-21T09:35:25;101874.83;;;26.30;8.07
64698;BME280;51124;53.394;-6.294;2022-07-21T09:38:11;101876.47;;;25.91;8.21
64698;BME280;51124;53.394;-6.294;2022-07-21T09:40:24;101877.47;;;25.13;8.37
64698;BME280;51124;53.394;-6.294;2022-07-21T09:42:58;101875.87;;;25.66;8.45
64698;BME280;51124;53.394;-6.294;2022-07-21T09:45:36;101876.96;;;25.30;8.38
64698;BME280;51124;53.394;-6.294;2022-07-21T09:48:00;101875.63;;;25.64;8.59
64698;BME280;51124;53.394;-6.294;2022-07-21T09:50:34;101874.14;;;27.10;8.23
64698;BME280;51124;53.394;-6.294;2022-07-21T09:53:08;101880.65;;;25.91;9.01
64698;BME280;51124;53.394;-6.294;2022-07-21T09:55:42;101880.03;;;25.09;9.02
64698;BME280;51124;53.394;-6.294;2022-07-21T09:58:17;101875.87;;;25.51;9.03
64698;BME280;51124;53.394;-6.294;2022-07-21T10:00:51;101866.59;;;25.74;8.97
64698;BME280;51124;53.394;-6.294;2022-07-21T10:03:25;101862.28;;;25.84;9.06
64698;BME280;51124;53.394;-6.294;2022-07-21T10:05:59;101863.68;;;26.40;8.88
64698;BME280;51124;53.394;-6.294;2022-07-21T10:08:35;101861.62;;;26.10;9.10
64698;BME280;51124;53.394;-6.294;2022-07-21T10:11:00;101854.68;;;26.57;8.99
64698;BME280;51124;53.394;-6.294;2022-07-21T10:13:36;101856.17;;;27.84;8.80
64698;BME280;51124;53.394;-6.294;2022-07-21T10:16:00;101855.15;;;27.10;8.91
64698;BME280;51124;53.394;-6.294;2022-07-21T10:18:38;101856.75;;;26.73;9.07
64698;BME280;51124;53.394;-6.294;2022-07-21T10:21:10;101860.60;;;26.29;9.35
64698;BME280;51124;53.394;-6.294;2022-07-21T10:23:40;101856.85;;;26.50;9.33
64698;BME280;51124;53.394;-6.294;2022-07-21T10:26:05;101857.55;;;25.39;9.82
64698;BME280;51124;53.394;-6.294;2022-07-21T10:28:39;101853.36;;;26.28;9.61
64698;BME280;51124;53.394;-6.294;2022-07-21T10:31:16;101854.83;;;26.78;9.23
64698;BME280;51124;53.394;-6.294;2022-07-21T10:34:13;101856.47;;;27.16;9.26
64698;BME280;51124;53.394;-6.294;2022-07-21T10:36:07;101854.54;;;26.51;9.63
64698;BME280;51124;53.394;-6.294;2022-07-21T10:38:33;101858.74;;;26.22;9.69
64698;BME280;51124;53.394;-6.294;2022-07-21T10:40:59;101858.15;;;25.63;9.37
64698;BME280;51124;53.394;-6.294;2022-07-21T10:43:40;101861.65;;;26.22;8.94
64698;BME280;51124;53.394;-6.294;2022-07-21T10:45:55;101861.74;;;24.93;9.28
64698;BME280;51124;53.394;-6.294;2022-07-21T10:49:02;101860.91;;;25.26;9.91
64698;BME280;51124;53.394;-6.294;2022-07-21T10:50:58;101859.56;;;23.67;10.43
64698;BME280;51124;53.394;-6.294;2022-07-21T10:53:21;101855.42;;;25.92;9.10
64698;BME280;51124;53.394;-6.294;2022-07-21T10:55:56;101851.73;;;23.50;10.09
64698;BME280;51124;53.394;-6.294;2022-07-21T10:58:31;101849.80;;;24.77;9.31
64698;BME280;51124;53.394;-6.294;2022-07-21T11:00:57;101844.48;;;26.96;9.35
64698;BME280;51124;53.394;-6.294;2022-07-21T11:03:25;101843.96;;;24.97;9.71
64698;BME280;51124;53.394;-6.294;2022-07-21T11:06:22;101841.08;;;27.07;9.05
64698;BME280;51124;53.394;-6.294;2022-07-21T11:08:17;101841.94;;;26.78;9.35
64698;BME280;51124;53.394;-6.294;2022-07-21T11:10:45;101841.39;;;26.64;9.39
64698;BME280;51124;53.394;-6.294;2022-07-21T11:13:10;101842.65;;;25.43;9.65
64698;BME280;51124;53.394;-6.294;2022-07-21T11:15:47;101839.42;;;25.87;9.49
64698;BME280;51124;53.394;-6.294;2022-07-21T11:18:16;101845.22;;;25.96;9.86
64698;BME280;51124;53.394;-6.294;2022-07-21T11:20:40;101847.08;;;26.11;9.81
64698;BME280;51124;53.394;-6.294;2022-07-21T11:23:14;101844.93;;;24.92;7.23
64698;BME280;51124;53.394;-6.294;2022-07-21T11:25:48;101844.42;;;24.58;7.37
64698;BME280;51124;53.394;-6.294;2022-07-21T11:28:23;101840.39;;;24.39;7.43
64698;BME280;51124;53.394;-6.294;2022-07-21T11:31:06;101839.78;;;24.86;7.65
64698;BME280;51124;53.394;-6.294;2022-07-21T11:33:31;101836.21;;;25.18;7.27
64698;BME280;51124;53.394;-6.294;2022-07-21T11:36:06;101832.92;;;25.25;7.41
64698;BME280;51124;53.394;-6.294;2022-07-21T11:38:30;101830.75;;;26.90;7.07
64698;BME280;51124;53.394;-6.294;2022-07-21T11:41:20;101832.43;;;26.33;7.45
64698;BME280;51124;53.394;-6.294;2022-07-21T11:43:39;101828.37;;;24.12;7.97
64698;BME280;51124;53.394;-6.294;2022-07-21T11:46:03;101829.19;;;24.86;7.76
64698;BME280;51124;53.394;-6.294;2022-07-21T11:48:37;101828.41;;;25.23;8.36
64698;BME280;51124;53.394;-6.294;2022-07-21T11:51:12;101825.18;;;25.01;7.51
64698;BME280;51124;53.394;-6.294;2022-07-21T11:53:46;101827.12;;;24.80;7.80
64698;BME280;51124;53.394;-6.294;2022-07-21T11:56:20;101825.38;;;25.24;8.03
64698;BME280;51124;53.394;-6.294;2022-07-21T11:59:08;101822.20;;;25.96;7.84
64698;BME280;51124;53.394;-6.294;2022-07-21T12:01:21;101819.62;;;27.30;7.98
64698;BME280;51124;53.394;-6.294;2022-07-21T12:03:56;101819.09;;;25.35;7.10
64698;BME280;51124;53.394;-6.294;2022-07-21T12:06:30;101820.60;;;25.15;7.13
64698;BME280;51124;53.394;-6.294;2022-07-21T12:09:04;101822.85;;;25.37;7.15
64698;BME280;51124;53.394;-6.294;2022-07-21T12:11:39;101826.90;;;23.37;7.77
64698;BME280;51124;53.394;-6.294;2022-07-21T12:14:13;101824.39;;;23.63;7.91
64698;BME280;51124;53.394;-6.294;2022-07-21T12:16:49;101820.60;;;24.38;8.09
64698;BME280;51124;53.394;-6.294;2022-07-21T12:19:15;101819.39;;;22.25;8.39
64698;BME280;51124;53.394;-6.294;2022-07-21T12:21:44;101822.44;;;25.35;7.81
64698;BME280;51124;53.394;-6.294;2022-07-21T12:24:08;101823.47;;;24.52;8.06
64698;BME280;51124;53.394;-6.294;2022-07-21T12:26:42;101820.76;;;25.12;7.67
64698;BME280;51124;53.394;-6.294;2022-07-21T12:29:35;101820.23;;;24.39;8.70
64698;BME280;51124;53.394;-6.294;2022-07-21T12:31:49;101814.47;;;24.58;7.95
64698;BME280;51124;53.394;-6.294;2022-07-21T12:34:23;101810.34;;;25.26;8.00
64698;BME280;51124;53.394;-6.294;2022-07-21T12:36:57;101812.46;;;24.89;7.97
64698;BME280;51124;53.394;-6.294;2022-07-21T12:39:31;101809.93;;;25.91;7.74
64698;BME280;51124;53.394;-6.294;2022-07-21T12:42:07;101807.66;;;26.03;8.35
64698;BME280;51124;53.394;-6.294;2022-07-21T12:44:32;101808.19;;;26.15;7.94
64698;BME280;51124;53.394;-6.294;2022-07-21T12:47:15;101812.26;;;23.41;9.12
64698;BME280;51124;53.394;-6.294;2022-07-21T12:49:55;101811.20;;;23.71;9.03
64698;BME280;51124;53.394;-6.294;2022-07-21T12:52:11;101813.38;;;24.47;8.83
64698;BME280;51124;53.394;-6.294;2022-07-21T12:54:35;101811.27;;;23.92;8.70
64698;BME280;51124;53.394;-6.294;2022-07-21T12:57:09;101807.40;;;23.45;8.92
64698;BME280;51124;53.394;-6.294;2022-07-21T12:59:43;101807.28;;;23.83;8.40
64698;BME280;51124;53.394;-6.294;2022-07-21T13:02:18;101801.89;;;24.95;8.41
64698;BME280;51124;53.394;-6.294;2022-07-21T13:04:53;101799.86;;;23.18;8.62
64698;BME280;51124;53.394;-6.294;2022-07-21T13:07:27;101802.06;;;23.95;8.98
64698;BME280;51124;53.394;-6.294;2022-07-21T13:10:01;101802.09;;;24.25;8.94